createdAt,value
2019-02-21T00:00:04.488Z,12.30
2019-02-21T00:02:32.793Z,11.47
2019-02-21T00:05:01.081Z,11.47
2019-02-21T00:07:29.369Z,9.20
2019-02-21T00:09:57.931Z,12.40
2019-02-21T00:12:26.233Z,11.73
2019-02-21T00:14:54.507Z,13.40
2019-02-21T00:17:22.879Z,12.17
2019-02-21T00:19:51.168Z,11.77
2019-02-21T00:22:19.457Z,10.80
2019-02-21T00:24:48.025Z,11.73
2019-02-21T00:27:16.315Z,11.60
2019-02-21T00:29:44.594Z,12.50
2019-02-21T00:32:12.876Z,13.10
2019-02-21T00:34:41.168Z,14.60
2019-02-21T00:37:09.445Z,12.07
2019-02-21T00:39:37.739Z,14.00
2019-02-21T00:42:06.348Z,11.90
2019-02-21T00:44:34.644Z,8.97
2019-02-21T00:47:03.162Z,12.37
2019-02-21T00:49:31.463Z,12.53
2019-02-21T00:52:02.572Z,13.73
2019-02-21T00:54:30.087Z,11.47
2019-02-21T00:56:58.360Z,11.07
2019-02-21T00:59:26.945Z,10.37
2019-02-21T01:01:55.226Z,13.30
2019-02-21T01:04:23.507Z,11.07
2019-02-21T01:06:52.099Z,14.23
2019-02-21T01:09:20.386Z,15.40
2019-02-21T01:11:49.005Z,17.17
2019-02-21T01:14:17.302Z,15.90
2019-02-21T01:16:45.598Z,14.93
2019-02-21T01:19:14.190Z,16.13
2019-02-21T01:21:42.495Z,17.30
2019-02-21T01:24:10.843Z,14.77
2019-02-21T01:26:39.169Z,22.30
2019-02-21T01:29:07.446Z,18.17
2019-02-21T01:31:35.731Z,21.07
2019-02-21T01:34:04.354Z,16.53
2019-02-21T01:36:32.882Z,12.70
2019-02-21T01:39:01.181Z,19.27
2019-02-21T01:41:29.460Z,15.90
2019-02-21T01:43:58.066Z,16.13
2019-02-21T01:46:26.657Z,16.23
2019-02-21T01:48:54.959Z,14.37
2019-02-21T01:51:23.238Z,13.17
2019-02-21T01:53:51.539Z,17.10
2019-02-21T01:56:19.827Z,15.30
2019-02-21T01:58:48.446Z,10.63
2019-02-21T02:01:16.752Z,13.10
2019-02-21T02:03:45.310Z,15.00
2019-02-21T02:06:13.593Z,12.20
2019-02-21T02:08:42.170Z,17.00
2019-02-21T02:11:10.523Z,12.07
2019-02-21T02:13:39.264Z,11.20
2019-02-21T02:16:07.555Z,11.57
2019-02-21T02:18:36.198Z,13.53
2019-02-21T02:21:04.499Z,13.90
2019-02-21T02:23:32.785Z,10.10
2019-02-21T02:26:01.088Z,11.37
2019-02-21T02:28:29.373Z,10.23
2019-02-21T02:30:57.670Z,13.10
2019-02-21T02:33:25.949Z,10.10
2019-02-21T02:35:54.255Z,12.63
2019-02-21T02:38:22.534Z,11.50
2019-02-21T02:40:50.838Z,12.43
2019-02-21T02:43:19.127Z,14.67
2019-02-21T02:45:47.431Z,14.13
2019-02-21T02:48:15.725Z,11.63
2019-02-21T02:50:44.036Z,14.10
2019-02-21T02:53:13.604Z,11.33
2019-02-21T02:55:41.905Z,12.70
2019-02-21T02:58:10.186Z,14.67
2019-02-21T03:00:38.498Z,14.73
2019-02-21T03:03:06.803Z,14.93
2019-02-21T03:05:35.092Z,10.60
2019-02-21T03:08:03.673Z,10.53
2019-02-21T03:10:31.964Z,11.50
2019-02-21T03:13:00.578Z,13.47
2019-02-21T03:15:28.895Z,14.47
2019-02-21T03:17:57.484Z,11.20
2019-02-21T03:20:25.786Z,14.23
2019-02-21T03:22:54.093Z,14.13
2019-02-21T03:25:22.381Z,16.67
2019-02-21T03:27:51.007Z,12.37
2019-02-21T03:30:19.312Z,11.77
2019-02-21T03:32:47.870Z,12.23
2019-02-21T03:35:16.402Z,13.47
2019-02-21T03:37:44.713Z,12.40
2019-02-21T03:40:13.055Z,13.60
2019-02-21T03:42:41.359Z,16.50
2019-02-21T03:45:11.778Z,13.03
2019-02-21T03:47:40.080Z,10.97
2019-02-21T03:50:11.976Z,15.77
2019-02-21T03:52:40.276Z,13.53
2019-02-21T03:55:09.196Z,12.73
2019-02-21T03:57:37.578Z,12.77
2019-02-21T04:00:08.820Z,11.73
2019-02-21T04:02:37.173Z,13.07
2019-02-21T04:05:06.929Z,12.63
2019-02-21T04:07:35.209Z,12.87
2019-02-21T04:10:05.165Z,12.87
2019-02-21T04:12:33.448Z,21.63
2019-02-21T04:15:01.752Z,11.40
2019-02-21T04:17:30.021Z,11.83
2019-02-21T04:19:58.325Z,13.57
2019-02-21T04:22:26.598Z,12.13
2019-02-21T04:24:54.897Z,11.63
2019-02-21T04:27:23.181Z,13.43
2019-02-21T04:29:51.504Z,13.17
2019-02-21T04:32:19.857Z,11.17
2019-02-21T04:34:48.414Z,13.40
2019-02-21T04:37:16.712Z,13.23
2019-02-21T04:39:44.997Z,12.73
2019-02-21T04:42:13.295Z,12.20
2019-02-21T04:44:41.627Z,13.40
2019-02-21T04:47:09.918Z,12.70
2019-02-21T04:49:38.209Z,12.57
2019-02-21T04:52:06.514Z,12.13
2019-02-21T04:54:35.149Z,13.63
2019-02-21T04:57:03.445Z,14.33
2019-02-21T04:59:31.726Z,13.13
2019-02-21T05:02:00.029Z,16.37
2019-02-21T05:04:28.310Z,13.90
2019-02-21T05:06:56.601Z,13.27
2019-02-21T05:09:27.025Z,12.10
2019-02-21T05:11:54.986Z,14.10
2019-02-21T05:14:23.538Z,14.07
2019-02-21T05:16:52.170Z,13.17
2019-02-21T05:19:20.465Z,15.50
2019-02-21T05:21:48.753Z,15.83
2019-02-21T05:24:17.055Z,14.10
2019-02-21T05:26:46.980Z,12.90
2019-02-21T05:29:15.286Z,13.13
2019-02-21T05:31:57.146Z,14.87
2019-02-21T05:34:27.072Z,12.67
2019-02-21T05:36:56.994Z,16.93
2019-02-21T05:39:26.934Z,15.77
2019-02-21T05:42:05.443Z,15.93
2019-02-21T05:44:50.815Z,14.23
2019-02-21T05:47:32.615Z,14.10
2019-02-21T05:50:05.616Z,16.43
2019-02-21T05:52:53.636Z,14.90
2019-02-21T05:55:26.539Z,17.73
2019-02-21T05:58:08.743Z,14.40
2019-02-21T06:00:53.730Z,14.57
2019-02-21T06:03:26.178Z,14.83
2019-02-21T06:05:56.125Z,13.43
2019-02-21T06:08:32.008Z,14.90
2019-02-21T06:11:07.461Z,16.53
2019-02-21T06:13:40.102Z,14.83
2019-02-21T06:16:13.010Z,12.17
2019-02-21T06:18:52.870Z,15.83
2019-02-21T06:21:22.810Z,12.83
2019-02-21T06:23:52.734Z,17.20
2019-02-21T06:26:22.954Z,14.17
2019-02-21T06:29:01.833Z,16.77
2019-02-21T06:31:30.142Z,16.93
2019-02-21T06:33:58.746Z,13.30
2019-02-21T06:36:27.048Z,19.17
2019-02-21T06:38:55.338Z,14.83
2019-02-21T06:41:23.634Z,17.20
2019-02-21T06:43:52.827Z,15.13
2019-02-21T06:46:21.192Z,14.60
2019-02-21T06:48:51.530Z,21.90
2019-02-21T06:51:19.520Z,19.23
2019-02-21T06:53:47.801Z,20.83
2019-02-21T06:56:16.082Z,17.50
2019-02-21T06:58:44.697Z,13.93
2019-02-21T07:01:12.977Z,16.40
2019-02-21T07:03:41.274Z,19.73
2019-02-21T07:06:09.555Z,19.43
2019-02-21T07:08:40.004Z,16.17
2019-02-21T07:11:07.876Z,15.33
2019-02-21T07:13:36.175Z,14.73
2019-02-21T07:16:04.474Z,15.37
2019-02-21T07:18:33.028Z,13.17
2019-02-21T07:21:01.332Z,16.13
2019-02-21T07:23:40.601Z,19.60
2019-02-21T07:26:00.947Z,17.63
2019-02-21T07:28:29.226Z,19.87
2019-02-21T07:30:57.561Z,19.50
2019-02-21T07:33:28.746Z,14.93
2019-02-21T07:35:55.879Z,20.00
2019-02-21T07:38:24.455Z,16.77
2019-02-21T07:40:52.881Z,17.17
2019-02-21T07:43:21.123Z,19.93
2019-02-21T07:45:49.430Z,19.60
2019-02-21T07:48:17.716Z,19.37
2019-02-21T07:50:46.030Z,15.30
2019-02-21T07:53:14.304Z,15.73
2019-02-21T07:55:42.857Z,14.97
2019-02-21T07:58:11.385Z,22.47
2019-02-21T08:00:39.971Z,18.20
2019-02-21T08:03:09.215Z,16.50
2019-02-21T08:05:37.719Z,16.97
2019-02-21T08:08:09.108Z,14.87
2019-02-21T08:10:36.346Z,18.17
2019-02-21T08:13:04.652Z,20.17
2019-02-21T08:15:33.008Z,20.07
2019-02-21T08:18:01.306Z,18.77
2019-02-21T08:20:33.946Z,17.50
2019-02-21T08:22:59.630Z,19.23
2019-02-21T08:25:28.166Z,20.30
2019-02-21T08:27:56.715Z,18.57
2019-02-21T08:30:25.328Z,18.50
2019-02-21T08:33:01.447Z,17.57
2019-02-21T08:35:30.765Z,20.00
2019-02-21T08:37:59.316Z,19.13
2019-02-21T08:40:27.981Z,19.30
2019-02-21T08:42:56.359Z,19.60
2019-02-21T08:45:24.644Z,17.90
2019-02-21T08:47:52.947Z,18.17
2019-02-21T08:50:22.310Z,20.90
2019-02-21T08:52:50.823Z,18.47
2019-02-21T08:55:19.122Z,19.27
2019-02-21T08:57:47.656Z,19.00
2019-02-21T09:00:16.512Z,20.13
2019-02-21T09:02:45.232Z,19.03
2019-02-21T09:05:13.650Z,20.07
2019-02-21T09:07:42.014Z,18.80
2019-02-21T09:10:12.108Z,18.37
2019-02-21T09:12:40.461Z,17.20
2019-02-21T09:15:12.034Z,20.67
2019-02-21T09:17:40.323Z,23.40
2019-02-21T09:20:09.970Z,20.90
2019-02-21T09:22:38.261Z,22.73
2019-02-21T09:25:09.371Z,19.07
2019-02-21T09:27:37.654Z,21.80
2019-02-21T09:30:15.347Z,20.00
2019-02-21T09:32:43.625Z,17.50
2019-02-21T09:35:11.996Z,20.17
2019-02-21T09:37:40.344Z,26.37
2019-02-21T09:40:13.433Z,19.20
2019-02-21T09:42:41.709Z,20.10
2019-02-21T09:45:14.916Z,23.47
2019-02-21T09:47:43.333Z,18.80
2019-02-21T09:50:11.975Z,21.57
2019-02-21T09:52:40.275Z,19.63
2019-02-21T09:55:10.839Z,21.20
2019-02-21T09:57:39.846Z,20.20
2019-02-21T10:00:11.489Z,21.53
2019-02-21T10:02:45.991Z,23.83
2019-02-21T10:05:14.359Z,23.07
2019-02-21T10:07:42.679Z,22.13
2019-02-21T10:10:15.835Z,20.73
2019-02-21T10:12:44.506Z,21.67
2019-02-21T10:15:14.439Z,22.60
2019-02-21T10:17:42.889Z,24.47
2019-02-21T10:20:19.592Z,27.80
2019-02-21T10:22:47.904Z,23.23
2019-02-21T10:25:18.875Z,25.63
2019-02-21T10:27:47.188Z,26.07
2019-02-21T10:30:20.937Z,27.63
2019-02-21T10:32:49.536Z,25.23
2019-02-21T10:35:17.831Z,24.63
2019-02-21T10:37:46.133Z,21.53
2019-02-21T10:40:15.726Z,27.00
2019-02-21T10:42:44.032Z,27.37
2019-02-21T10:45:18.711Z,25.50
2019-02-21T10:47:47.100Z,24.47
2019-02-21T10:50:19.815Z,28.63
2019-02-21T10:52:48.702Z,25.10
2019-02-21T10:55:17.591Z,31.33
2019-02-21T10:57:46.343Z,23.87
2019-02-21T11:00:26.726Z,25.67
2019-02-21T11:02:55.692Z,25.10
2019-02-21T11:05:24.060Z,29.80
2019-02-21T11:07:52.665Z,26.10
2019-02-21T11:10:28.006Z,28.93
2019-02-21T11:12:56.310Z,28.50
2019-02-21T11:15:25.506Z,30.33
2019-02-21T11:17:53.811Z,28.07
2019-02-21T11:20:22.466Z,25.80
2019-02-21T11:22:50.769Z,32.50
2019-02-21T11:25:19.121Z,30.43
2019-02-21T11:27:47.767Z,32.70
2019-02-21T11:30:18.273Z,28.23
2019-02-21T11:32:46.841Z,30.87
2019-02-21T11:35:15.201Z,27.37
2019-02-21T11:37:46.854Z,26.90
2019-02-21T11:40:15.560Z,26.33
2019-02-21T11:42:44.489Z,30.27
2019-02-21T11:45:16.962Z,27.93
2019-02-21T11:47:45.254Z,28.77
2019-02-21T11:50:18.346Z,30.03
2019-02-21T11:52:46.689Z,30.37
2019-02-21T11:55:22.709Z,30.63
2019-02-21T11:57:50.993Z,28.93
2019-02-21T12:00:27.455Z,29.27
2019-02-21T12:02:55.813Z,32.17
2019-02-21T12:05:32.218Z,26.50
2019-02-21T12:07:54.326Z,25.47
2019-02-21T12:10:22.609Z,29.93
2019-02-21T12:12:50.907Z,25.93
2019-02-21T12:15:19.279Z,29.00
2019-02-21T12:17:47.570Z,27.90
2019-02-21T12:20:17.653Z,27.40
2019-02-21T12:22:46.026Z,24.47
2019-02-21T12:25:19.974Z,26.43
2019-02-21T12:27:48.590Z,26.97
2019-02-21T12:30:18.228Z,25.40
2019-02-21T12:32:46.771Z,25.73
2019-02-21T12:35:15.062Z,24.80
2019-02-21T12:37:43.772Z,33.13
2019-02-21T12:40:19.995Z,32.60
2019-02-21T12:42:48.595Z,26.37
2019-02-21T12:45:22.269Z,28.20
2019-02-21T12:47:53.812Z,26.67
2019-02-21T12:50:21.212Z,23.63
2019-02-21T12:52:49.521Z,26.47
2019-02-21T12:55:27.116Z,26.77
2019-02-21T12:57:48.191Z,24.53
2019-02-21T13:00:18.624Z,30.03
2019-02-21T13:02:46.995Z,27.00
2019-02-21T13:05:15.583Z,26.70
2019-02-21T13:07:44.187Z,24.30
2019-02-21T13:10:23.594Z,21.80
2019-02-21T13:12:52.311Z,26.03
2019-02-21T13:15:20.580Z,23.97
2019-02-21T13:17:50.921Z,26.03
2019-02-21T13:20:18.936Z,23.63
2019-02-21T13:22:47.223Z,22.80
2019-02-21T13:25:19.383Z,28.27
2019-02-21T13:27:47.673Z,27.00
2019-02-21T13:30:17.906Z,22.30
2019-02-21T13:32:46.195Z,24.63
2019-02-21T13:35:14.882Z,27.63
2019-02-21T13:37:43.562Z,22.83
2019-02-21T13:40:15.889Z,22.07
2019-02-21T13:42:44.190Z,26.10
2019-02-21T13:45:17.297Z,26.57
2019-02-21T13:47:44.592Z,20.87
2019-02-21T13:50:20.666Z,25.87
2019-02-21T13:52:48.951Z,21.03
2019-02-21T13:55:17.666Z,25.77
2019-02-21T13:57:45.952Z,25.87
2019-02-21T14:00:19.148Z,22.60
2019-02-21T14:02:47.430Z,26.30
2019-02-21T14:05:15.755Z,27.20
2019-02-21T14:07:44.371Z,24.90
2019-02-21T14:10:14.190Z,26.70
2019-02-21T14:12:42.492Z,25.30
2019-02-21T14:15:22.904Z,25.33
2019-02-21T14:17:51.208Z,26.20
2019-02-21T14:20:19.506Z,25.43
2019-02-21T14:22:47.813Z,24.47
2019-02-21T14:25:16.095Z,27.27
2019-02-21T14:27:44.406Z,24.90
2019-02-21T14:30:18.188Z,29.40
2019-02-21T14:32:46.491Z,24.43
2019-02-21T14:35:15.520Z,28.23
2019-02-21T14:37:43.895Z,26.70
2019-02-21T14:40:13.322Z,27.67
2019-02-21T14:42:41.627Z,26.37
2019-02-21T14:45:35.039Z,27.10
2019-02-21T14:48:03.690Z,25.37
2019-02-21T14:50:32.372Z,25.70
2019-02-21T14:53:00.960Z,26.10
2019-02-21T14:55:30.171Z,21.93
2019-02-21T14:57:58.655Z,22.93
2019-02-21T15:00:28.586Z,24.43
2019-02-21T15:02:57.858Z,19.97
2019-02-21T15:05:26.440Z,22.27
2019-02-21T15:07:54.713Z,20.37
2019-02-21T15:10:23.039Z,21.83
2019-02-21T15:12:51.406Z,23.77
2019-02-21T15:15:26.700Z,21.10
2019-02-21T15:18:06.654Z,24.20
2019-02-21T15:20:35.851Z,23.33
2019-02-21T15:22:55.047Z,24.03
2019-02-21T15:25:23.350Z,20.40
2019-02-21T15:27:51.666Z,20.27
2019-02-21T15:30:25.372Z,19.60
2019-02-21T15:32:53.984Z,19.13
2019-02-21T15:35:22.366Z,18.70
2019-02-21T15:37:50.656Z,18.83
2019-02-21T15:40:19.031Z,21.57
2019-02-21T15:42:47.316Z,21.00
2019-02-21T15:45:24.346Z,19.53
2019-02-21T15:47:52.900Z,24.77
2019-02-21T15:50:21.215Z,18.80
2019-02-21T15:52:49.963Z,21.10
2019-02-21T15:55:19.928Z,18.37
2019-02-21T15:57:48.505Z,18.73
2019-02-21T16:00:19.975Z,22.40
2019-02-21T16:02:48.273Z,18.17
2019-02-21T16:05:16.565Z,21.57
2019-02-21T16:07:44.903Z,19.13
2019-02-21T16:10:18.905Z,22.63
2019-02-21T16:12:47.568Z,19.57
2019-02-21T16:15:16.776Z,22.00
2019-02-21T16:17:45.075Z,21.93
2019-02-21T16:20:18.404Z,22.43
2019-02-21T16:22:46.752Z,23.07
2019-02-21T16:25:29.395Z,25.17
2019-02-21T16:27:57.699Z,26.53
2019-02-21T16:30:26.311Z,23.17
2019-02-21T16:32:54.609Z,27.23
2019-02-21T16:35:22.901Z,25.40
2019-02-21T16:37:51.225Z,28.20
2019-02-21T16:40:20.437Z,23.10
2019-02-21T16:42:48.974Z,25.40
2019-02-21T16:45:19.773Z,25.10
2019-02-21T16:47:48.062Z,23.23
2019-02-21T16:50:16.443Z,25.13
2019-02-21T16:52:44.740Z,25.17
2019-02-21T16:55:15.949Z,28.13
2019-02-21T16:57:44.236Z,24.67
2019-02-21T17:00:15.328Z,24.73
2019-02-21T17:02:43.938Z,23.90
2019-02-21T17:05:12.318Z,28.37
2019-02-21T17:07:40.788Z,23.73
2019-02-21T17:10:11.596Z,26.60
2019-02-21T17:12:39.832Z,31.60
2019-02-21T17:15:11.544Z,26.53
2019-02-21T17:17:39.825Z,28.00
2019-02-21T17:20:16.930Z,22.87
2019-02-21T17:22:45.222Z,34.07
2019-02-21T17:25:15.272Z,29.90
2019-02-21T17:27:44.696Z,40.37
2019-02-21T17:30:17.181Z,28.40
2019-02-21T17:32:45.797Z,30.10
2019-02-21T17:35:14.638Z,26.20
2019-02-21T17:37:43.240Z,23.90
2019-02-21T17:40:20.158Z,28.40
2019-02-21T17:42:48.528Z,26.60
2019-02-21T17:45:16.840Z,28.33
2019-02-21T17:47:45.378Z,28.90
2019-02-21T17:50:16.001Z,25.07
2019-02-21T17:52:44.365Z,27.23
2019-02-21T17:55:12.727Z,28.00
2019-02-21T17:57:41.030Z,34.17
2019-02-21T18:00:24.838Z,28.47
2019-02-21T18:02:53.138Z,29.13
2019-02-21T18:05:22.980Z,27.67
2019-02-21T18:07:51.578Z,28.63
2019-02-21T18:10:20.149Z,26.47
2019-02-21T18:12:48.469Z,26.27
2019-02-21T18:15:18.296Z,30.07
2019-02-21T18:17:46.609Z,29.17
2019-02-21T18:20:16.216Z,26.93
2019-02-21T18:22:44.594Z,28.67
2019-02-21T18:25:18.826Z,26.13
2019-02-21T18:27:47.135Z,27.80
2019-02-21T18:30:16.867Z,28.47
2019-02-21T18:32:45.318Z,26.77
2019-02-21T18:35:13.622Z,33.57
2019-02-21T18:37:47.291Z,25.63
2019-02-21T18:40:20.462Z,31.97
2019-02-21T18:42:47.710Z,27.83
2019-02-21T18:45:16.069Z,26.33
2019-02-21T18:47:44.395Z,29.47
2019-02-21T18:50:14.233Z,25.30
2019-02-21T18:52:42.785Z,23.23
2019-02-21T18:55:11.140Z,30.07
2019-02-21T18:57:39.720Z,23.87
2019-02-21T19:00:11.356Z,25.00
2019-02-21T19:02:39.664Z,26.77
2019-02-21T19:05:09.226Z,25.00
2019-02-21T19:07:37.493Z,25.33
2019-02-21T19:10:09.213Z,26.57
2019-02-21T19:12:37.520Z,32.57
2019-02-21T19:15:08.003Z,31.13
2019-02-21T19:17:36.309Z,30.23
2019-02-21T19:20:07.205Z,27.90
2019-02-21T19:22:35.514Z,29.27
2019-02-21T19:25:04.643Z,29.00
2019-02-21T19:27:37.190Z,30.07
2019-02-21T19:30:05.139Z,27.73
2019-02-21T19:32:33.669Z,39.27
2019-02-21T19:35:01.975Z,28.27
2019-02-21T19:37:30.587Z,31.20
2019-02-21T19:39:58.897Z,29.30
2019-02-21T19:42:27.203Z,28.80
2019-02-21T19:44:55.808Z,28.23
2019-02-21T19:47:24.105Z,30.43
2019-02-21T19:49:52.414Z,28.97
2019-02-21T19:52:20.701Z,29.13
2019-02-21T19:54:49.075Z,26.13
2019-02-21T19:57:25.841Z,30.23
2019-02-21T19:59:54.143Z,32.53
2019-02-21T20:02:22.502Z,28.77
2019-02-21T20:04:50.822Z,30.57
2019-02-21T20:07:19.433Z,30.60
2019-02-21T20:09:47.824Z,28.93
2019-02-21T20:12:16.203Z,33.33
2019-02-21T20:14:44.855Z,29.80
2019-02-21T20:17:13.153Z,29.00
2019-02-21T20:19:41.452Z,29.70
2019-02-21T20:22:09.813Z,28.97
2019-02-21T20:24:38.492Z,30.73
2019-02-21T20:27:07.180Z,35.73
2019-02-21T20:29:35.497Z,31.37
2019-02-21T20:32:03.867Z,27.10
2019-02-21T20:34:32.174Z,29.70
2019-02-21T20:37:00.476Z,29.17
2019-02-21T20:39:29.052Z,30.73
2019-02-21T20:41:57.352Z,28.63
2019-02-21T20:44:25.676Z,30.23
2019-02-21T20:46:53.979Z,28.10
2019-02-21T20:49:22.299Z,27.87
2019-02-21T20:51:50.949Z,30.23
2019-02-21T20:54:19.288Z,31.00
2019-02-21T20:56:47.913Z,30.33
2019-02-21T20:59:16.208Z,32.30
2019-02-21T21:01:44.576Z,32.30
2019-02-21T21:04:12.880Z,34.13
2019-02-21T21:06:41.249Z,28.40
2019-02-21T21:09:10.214Z,27.90
2019-02-21T21:11:38.527Z,32.03
2019-02-21T21:14:07.138Z,28.93
2019-02-21T21:16:38.308Z,27.10
2019-02-21T21:19:06.602Z,28.40
2019-02-21T21:21:34.908Z,33.00
2019-02-21T21:24:03.557Z,32.47
2019-02-21T21:26:31.859Z,35.13
2019-02-21T21:29:00.421Z,32.07
2019-02-21T21:31:28.719Z,36.40
2019-02-21T21:33:57.012Z,35.83
2019-02-21T21:36:25.329Z,40.83
2019-02-21T21:38:54.482Z,39.63
2019-02-21T21:41:22.892Z,37.43
2019-02-21T21:43:51.194Z,40.00
2019-02-21T21:46:19.807Z,35.33
2019-02-21T21:48:48.116Z,37.97
2019-02-21T21:51:16.477Z,39.30
2019-02-21T21:53:44.785Z,36.40
2019-02-21T21:56:13.405Z,32.67
2019-02-21T21:58:41.709Z,37.13
2019-02-21T22:01:10.261Z,36.67
2019-02-21T22:03:38.880Z,34.70
2019-02-21T22:06:07.436Z,37.03
2019-02-21T22:08:35.740Z,37.57
2019-02-21T22:11:04.412Z,35.50
2019-02-21T22:13:32.720Z,36.90
2019-02-21T22:16:01.375Z,35.50
2019-02-21T22:18:29.681Z,36.73
2019-02-21T22:20:57.981Z,35.83
2019-02-21T22:23:26.600Z,37.93
2019-02-21T22:25:55.177Z,37.83
2019-02-21T22:28:26.214Z,38.47
2019-02-21T22:30:53.519Z,47.57
2019-02-21T22:33:22.163Z,42.40
2019-02-21T22:35:50.744Z,36.27
2019-02-21T22:38:19.044Z,42.07
2019-02-21T22:40:47.707Z,47.77
2019-02-21T22:43:17.217Z,39.27
2019-02-21T22:45:45.804Z,39.90
2019-02-21T22:48:14.086Z,42.23
2019-02-21T22:50:42.391Z,44.90
2019-02-21T22:53:10.690Z,44.60
2019-02-21T22:55:38.992Z,43.70
2019-02-21T22:58:07.354Z,43.13
2019-02-21T23:00:39.909Z,43.43
2019-02-21T23:03:10.781Z,44.37
2019-02-21T23:05:48.398Z,44.27
2019-02-21T23:08:32.091Z,46.00
2019-02-21T23:11:00.389Z,40.63
2019-02-21T23:13:28.935Z,45.63
2019-02-21T23:15:57.603Z,45.30
2019-02-21T23:18:25.897Z,47.77
2019-02-21T23:20:54.266Z,48.57
2019-02-21T23:23:22.570Z,60.10
2019-02-21T23:25:51.193Z,49.37
2019-02-21T23:28:19.776Z,48.17
2019-02-21T23:30:48.063Z,54.80
2019-02-21T23:33:16.747Z,50.90
2019-02-21T23:35:45.318Z,51.03
2019-02-21T23:38:13.700Z,50.63
2019-02-21T23:40:42.000Z,55.90
2019-02-21T23:43:10.299Z,49.90
2019-02-21T23:45:38.590Z,49.10
2019-02-21T23:48:06.893Z,52.83
2019-02-21T23:50:35.180Z,45.57
2019-02-21T23:53:03.557Z,53.57
2019-02-21T23:55:31.850Z,50.57
2019-02-21T23:58:00.153Z,53.17
